Aviation Digital Data Service (ADDS)

Output produced by METARs form (2317 UTC 23 May 2022)
found at http://www.aviationweather.gov/metar/data/
 
LQBK 232300Z VRB02KT CAVOK 16/14 Q1008 NOSIG
TAF LQBK 232300Z 2400/2424 09005KT CAVOK TX31/2413Z TN14/2403Z 
     PROB30 
     TEMPO 2414/2418 VRB15KT TSRA FEW035CB SCT045
       
LQMO 232300Z VRB02KT CAVOK 18/13 Q1010
TAF LQMO 232300Z 2400/2424 VRB02KT CAVOK TX31/2413Z TN15/2403Z 
     TEMPO 2412/2417 19010KT
       
LQSA 232300Z 14002KT 8000 NSC 14/14 Q1011
TAF LQSA 232300Z 2400/2424 VRB02KT 9999 SCT050 TX27/2413Z TN12/2403Z 
     PROB30 
     TEMPO 2403/2406 4000 BR 
     PROB40 
     TEMPO 2409/2415 20010KT SHRA FEW030TCU SCT050
       
LQTZ 232300Z VRB01KT CAVOK 15/14 Q1009
TAF LQTZ 232300Z 2400/2424 10005KT CAVOK TX30/2413Z TN12/2403Z 
     PROB30 
     TEMPO 2415/2420 VRB15KT TSRA FEW035CB SCT045